ADDS METAR Data INFO
IDs: Format: Raw Decoded Include TAF

Data at: 1604 UTC 12 Dec 2017

KBOW 121552Z 22011KT 10SM SKC 19/11 A3004
KBOW 121455Z 20009KT 10SM SKC 16/11 A3006
KBOW 121354Z 21008KT 10SM FEW040 12/09 A3008
KBOW 121253Z VRB03KT 10SM FEW040 07/07 A3008
KBOW 121230Z 00000KT 10SM SKC 06/06 A3008
KBOW 121215Z AUTO 00000KT 10SM CLR 06/06 A3008 RMK AO2
KBOW 121155Z AUTO 17003KT 10SM CLR 06/06 A3007 RMK AO2
KBOW 121135Z AUTO 18004KT 10SM CLR 06/06 A3008 RMK AO2
KBOW 121115Z AUTO 17003KT 10SM CLR 05/05 A3007 RMK AO2
KBOW 121055Z AUTO 17003KT 10SM CLR 05/05 A3007 RMK AO2
KBOW 121035Z AUTO 00000KT 10SM CLR 06/06 A3008 RMK AO2
KBOW 121015Z AUTO 00000KT 10SM CLR 06/06 A3008 RMK AO2
KBOW 120955Z AUTO 21003KT 10SM FEW029 06/06 A3008 RMK AO2
KBOW 120935Z AUTO 21004KT 10SM CLR 06/06 A3009 RMK AO2
KBOW 120915Z AUTO 00000KT 10SM CLR 05/05 A3009 RMK AO2
KBOW 120855Z AUTO 00000KT 10SM CLR 04/04 A3010 RMK AO2
KBOW 120835Z AUTO 00000KT 10SM CLR 05/05 A3010 RMK AO2
KBOW 120815Z AUTO 00000KT 10SM CLR 05/05 A3010 RMK AO2
KBOW 120755Z AUTO 16003KT 10SM CLR 04/04 A3010 RMK AO2
KBOW 120735Z AUTO 18004KT 10SM CLR 03/03 A3011 RMK AO2
KBOW 120715Z AUTO 00000KT 10SM CLR 03/03 A3011 RMK AO2
KBOW 120655Z AUTO 00000KT 10SM CLR 02/02 A3012 RMK AO2
KBOW 120635Z AUTO 00000KT 10SM CLR 04/04 A3012 RMK AO2
KBOW 120615Z AUTO 00000KT 10SM CLR 03/03 A3013 RMK AO2
KBOW 120555Z AUTO 00000KT 10SM CLR 03/03 A3014 RMK AO2
KBOW 120535Z AUTO 00000KT 10SM CLR 03/03 A3015 RMK AO2
KBOW 120515Z AUTO 00000KT 10SM CLR 04/04 A3015 RMK AO2
KBOW 120455Z AUTO 00000KT 10SM CLR 03/03 A3016 RMK AO2
KBOW 120435Z AUTO 00000KT 10SM CLR 03/03 A3016 RMK AO2
KBOW 120415Z AUTO 00000KT 10SM CLR 03/03 A3017 RMK AO2
KBOW 120355Z AUTO 00000KT 10SM CLR 04/03 A3018 RMK AO2
KBOW 120335Z AUTO 00000KT 10SM CLR 04/03 A3018 RMK AO2
KBOW 120315Z AUTO 00000KT 10SM CLR 04/03 A3019 RMK AO2
KBOW 120255Z AUTO 00000KT 10SM CLR 04/03 A3019 RMK AO2
KBOW 120235Z AUTO 00000KT 10SM CLR 05/03 A3019 RMK AO2
KBOW 120215Z AUTO 00000KT 10SM CLR 06/03 A3020 RMK AO2
KBOW 120155Z AUTO 00000KT 10SM CLR 06/03 A3020 RMK AO2
KBOW 120135Z AUTO 31003KT 10SM CLR 10/02 A3020 RMK AO2
KBOW 120115Z AUTO 00000KT 10SM CLR 08/02 A3020 RMK AO2
KBOW 120055Z AUTO 00000KT 10SM CLR 08/02 A3020 RMK AO2
KBOW 120035Z AUTO 00000KT 10SM CLR 08/03 A3020 RMK AO2
KBOW 120015Z AUTO 30003KT 10SM CLR 10/02 A3019 RMK AO2
KBOW 112355Z AUTO 00000KT 10SM CLR 08/03 A3019 RMK AO2
KBOW 112335Z AUTO 00000KT 10SM CLR 09/03 A3019 RMK AO2
KBOW 112315Z AUTO 00000KT 10SM CLR 10/03 A3018 RMK AO2
KBOW 112255Z AUTO 27003KT 10SM CLR 14/M01 A3018 RMK AO2
KBOW 112235Z AUTO 27003KT 10SM CLR 15/M01 A3018 RMK AO2
KBOW 112155Z 30004KT 10SM SKC 16/M03 A3018
KBOW 112050Z 32005KT 10SM SKC 16/M04 A3018
KBOW 111954Z 28005KT 10SM SKC 16/M04 A3019
KBOW 111849Z 29006KT 10SM SKC 15/M02 A3020
KBOW 111745Z 35006KT 10SM SKC 14/M02 A3024
KBOW 111655Z 35006KT 10SM SKC 13/M02 A3025
KBOW 111547Z 35009KT 10SM SKC 12/M03 A3030
KBOW 111446Z 36010KT 10SM SKC 10/01 A3031
KBOW 111352Z 01007KT 10SM SKC 09/03 A3031
KBOW 111245Z 00000KT 10SM SKC 01/01 A3031
KBOW 111230Z 00000KT 10SM MIFG SKC 01/01 A3030
KBOW 111215Z AUTO 00000KT 10SM CLR 01/01 A3031 RMK AO2
KBOW 111155Z AUTO 00000KT 10SM CLR 02/02 A3030 RMK AO2
KBOW 111135Z AUTO 00000KT 10SM CLR 02/02 A3030 RMK AO2
KBOW 111115Z AUTO 00000KT 10SM CLR 01/01 A3030 RMK AO2
KBOW 111055Z AUTO 00000KT 10SM CLR 03/02 A3030 RMK AO2
KBOW 111035Z AUTO 00000KT 10SM CLR 02/01 A3029 RMK AO2
KBOW 111015Z AUTO 00000KT 10SM CLR 02/01 A3029 RMK AO2
KBOW 110955Z AUTO 35003KT 10SM CLR 05/01 A3030 RMK AO2
KBOW 110935Z AUTO 34004KT 10SM CLR 05/01 A3029 RMK AO2
KBOW 110915Z AUTO 00000KT 10SM CLR 03/02 A3029 RMK AO2
KBOW 110855Z AUTO 34004KT 10SM CLR 05/02 A3029 RMK AO2
KBOW 110835Z AUTO 33004KT 10SM CLR 04/02 A3029 RMK AO2
KBOW 110815Z AUTO 00000KT 10SM CLR 01/01 A3029 RMK AO2
KBOW 110755Z AUTO 00000KT 10SM CLR 02/02 A3029 RMK AO2
KBOW 110735Z AUTO 00000KT 10SM CLR 02/02 A3029 RMK AO2
KBOW 110715Z AUTO 00000KT 10SM CLR 03/01 A3030 RMK AO2
KBOW 110655Z AUTO 00000KT 10SM CLR 02/02 A3030 RMK AO2
KBOW 110635Z AUTO 00000KT 10SM CLR 02/02 A3030 RMK AO2
KBOW 110615Z AUTO 00000KT 10SM CLR 02/02 A3031 RMK AO2
KBOW 110555Z AUTO 00000KT 10SM CLR 02/02 A3031 RMK AO2
KBOW 110535Z AUTO 00000KT 10SM CLR 01/01 A3031 RMK AO2
KBOW 110515Z AUTO 00000KT 10SM CLR 03/03 A3032 RMK AO2
KBOW 110455Z AUTO 00000KT 10SM CLR 02/02 A3032 RMK AO2
KBOW 110435Z AUTO 00000KT 10SM CLR 03/02 A3033 RMK AO2
KBOW 110415Z AUTO 00000KT 10SM CLR 03/02 A3033 RMK AO2